LiveATC.Net - Listen to live air traffic control over the Internet!


ICAO: KJRB  IATA: JRB   Airport: Downtown Manhattan/Wall St Heliport
City: New York   State/Province: New York
Country: United States   Continent: North America
KNYC METAR Weather: KNYC 170451Z AUTO 24004KT 8SM CLR 28/21 A3011 RMK AO2 SLP186 T02780206 403110244 $
KJRB Flight Activity (FlightAware)
KJRB Airport Info   (AirNav) (iFlightPlanner)
KJRB VFR Sectional Chart   (iFlightPlanner) 
KJRB IFR Low Chart   (iFlightPlanner) 

KJRB Wall St Heliport CTAF
Feed Status: DOWN
Last heard on: 2016-08-13 16:31:03 (733 days 13 hours 26 minutes ago)
KJRB Wall St Heliport CTAF Audio Archives
FacilityFrequency
East River/KJRB Wall St. Heliport123.050

NOTICE

Unauthorized use prohibited. See LiveATC.net Terms of Service


Find LiveATC Audio Streams


Airport/ARTCC Code

Frequency Search
(e.g., 124.400, 128.75)
Site-wide search
 


Browse LiveATC Feeds
Top 50 LiveATC Feeds
Bad Weather Areas

LiveATC FAQ
Offer a LiveATC Feed
Contact LiveATC.net
Press Inquiries

LiveATC on iPhone
LiveATC on Android

Windows Phone
Windows 8/10

LiveATC Mobile
(Mobile browser)

ATC Audio Archives
Interesting Recordings

LiveATC Forums


Home Page
About LiveATC.net
Make a Donation
Terms of Use
Privacy Policy

Canadian Air Freqs

AIRMETs/SIGMETs

FAA Airport Status
Nat'l Airspace Status
Arrival Demand Charts


Server Software By:
Icecast.org
Liquidsoap